Terminal Aerodrome Forecast
Issued by NWS

Home | Current Version | Previous Version | Text Only | Print | Product List | Glossary On
Versions: 1 2 3 4 5 6 7 8 9 10 11 12 13
000
FTUS42 KMLB 261506 AAA
TAFISM
TAF AMD
KISM 261506Z 2615/2712 26014G22KT P6SM VCSH BKN026
     FM261600 27017G25KT P6SM VCSH SCT035 BKN050 BKN250
     FM262300 26010KT P6SM VCSH SCT020 BKN040 BKN250
     FM270500 25008KT P6SM SCT010 BKN020=

USA.gov is the U.S. government's official web portal to all federal, state and local government web resources and services.